sensor_id;sensor_type;location;lat;lon;timestamp;P1;durP1;ratioP1;P2;durP2;ratioP2
23539;SDS011;11947;50.810;4.394;2023-09-18T00:00:46;13.38;;;7.90;;
23539;SDS011;11947;50.810;4.394;2023-09-18T00:03:19;11.57;;;8.88;;
23539;SDS011;11947;50.810;4.394;2023-09-18T00:05:48;13.00;;;7.72;;
23539;SDS011;11947;50.810;4.394;2023-09-18T00:08:15;11.82;;;7.90;;
23539;SDS011;11947;50.810;4.394;2023-09-18T00:10:42;11.63;;;7.80;;
23539;SDS011;11947;50.810;4.394;2023-09-18T00:13:12;15.35;;;8.05;;
23539;SDS011;11947;50.810;4.394;2023-09-18T00:15:37;16.13;;;9.25;;
23539;SDS011;11947;50.810;4.394;2023-09-18T00:18:03;11.50;;;8.05;;
23539;SDS011;11947;50.810;4.394;2023-09-18T00:20:29;13.70;;;8.32;;
23539;SDS011;11947;50.810;4.394;2023-09-18T00:22:55;11.00;;;7.97;;
23539;SDS011;11947;50.810;4.394;2023-09-18T00:25:21;15.35;;;8.32;;
23539;SDS011;11947;50.810;4.394;2023-09-18T00:27:47;17.90;;;8.30;;
23539;SDS011;11947;50.810;4.394;2023-09-18T00:30:14;16.10;;;8.45;;
23539;SDS011;11947;50.810;4.394;2023-09-18T00:32:39;14.50;;;8.23;;
23539;SDS011;11947;50.810;4.394;2023-09-18T00:35:05;17.58;;;8.88;;
23539;SDS011;11947;50.810;4.394;2023-09-18T00:37:31;18.58;;;8.35;;
23539;SDS011;11947;50.810;4.394;2023-09-18T00:39:57;17.92;;;8.30;;
23539;SDS011;11947;50.810;4.394;2023-09-18T00:42:23;14.77;;;9.05;;
23539;SDS011;11947;50.810;4.394;2023-09-18T00:44:49;15.18;;;9.35;;
23539;SDS011;11947;50.810;4.394;2023-09-18T00:47:15;19.98;;;9.80;;
23539;SDS011;11947;50.810;4.394;2023-09-18T00:49:43;15.90;;;9.88;;
23539;SDS011;11947;50.810;4.394;2023-09-18T00:52:12;17.08;;;10.10;;
23539;SDS011;11947;50.810;4.394;2023-09-18T00:54:39;15.52;;;10.02;;
23539;SDS011;11947;50.810;4.394;2023-09-18T00:57:06;18.13;;;10.73;;
23539;SDS011;11947;50.810;4.394;2023-09-18T00:59:31;20.73;;;9.95;;
23539;SDS011;11947;50.810;4.394;2023-09-18T01:01:58;18.45;;;10.02;;
23539;SDS011;11947;50.810;4.394;2023-09-18T01:04:24;19.85;;;9.55;;
23539;SDS011;11947;50.810;4.394;2023-09-18T01:06:51;16.05;;;9.65;;
23539;SDS011;11947;50.810;4.394;2023-09-18T01:09:17;16.48;;;9.73;;
23539;SDS011;11947;50.810;4.394;2023-09-18T01:11:48;20.85;;;10.15;;
23539;SDS011;11947;50.810;4.394;2023-09-18T01:14:41;18.20;;;10.05;;
23539;SDS011;11947;50.810;4.394;2023-09-18T01:17:24;18.73;;;10.45;;
23539;SDS011;11947;50.810;4.394;2023-09-18T01:19:51;19.88;;;10.85;;
23539;SDS011;11947;50.810;4.394;2023-09-18T01:22:17;16.23;;;10.27;;
23539;SDS011;11947;50.810;4.394;2023-09-18T01:24:45;20.98;;;11.18;;
23539;SDS011;11947;50.810;4.394;2023-09-18T01:27:15;18.13;;;10.68;;
23539;SDS011;11947;50.810;4.394;2023-09-18T01:29:43;16.75;;;10.27;;
23539;SDS011;11947;50.810;4.394;2023-09-18T01:32:09;15.32;;;9.93;;
23539;SDS011;11947;50.810;4.394;2023-09-18T01:34:36;16.30;;;9.18;;
23539;SDS011;11947;50.810;4.394;2023-09-18T01:37:06;18.52;;;8.80;;
23539;SDS011;11947;50.810;4.394;2023-09-18T01:39:34;16.58;;;9.35;;
23539;SDS011;11947;50.810;4.394;2023-09-18T01:42:01;20.27;;;9.30;;
23539;SDS011;11947;50.810;4.394;2023-09-18T01:44:34;17.20;;;9.07;;
23539;SDS011;11947;50.810;4.394;2023-09-18T01:47:03;16.23;;;8.93;;
23539;SDS011;11947;50.810;4.394;2023-09-18T01:49:35;13.98;;;8.60;;
23539;SDS011;11947;50.810;4.394;2023-09-18T01:52:02;17.45;;;8.60;;
23539;SDS011;11947;50.810;4.394;2023-09-18T01:54:30;16.85;;;9.13;;
23539;SDS011;11947;50.810;4.394;2023-09-18T01:56:56;14.43;;;8.77;;
23539;SDS011;11947;50.810;4.394;2023-09-18T01:59:22;14.25;;;8.98;;
23539;SDS011;11947;50.810;4.394;2023-09-18T02:01:48;15.52;;;9.20;;
23539;SDS011;11947;50.810;4.394;2023-09-18T02:04:15;16.38;;;9.38;;
23539;SDS011;11947;50.810;4.394;2023-09-18T02:06:42;19.13;;;10.13;;
23539;SDS011;11947;50.810;4.394;2023-09-18T02:09:08;16.15;;;9.23;;
23539;SDS011;11947;50.810;4.394;2023-09-18T02:11:36;13.77;;;9.30;;
23539;SDS011;11947;50.810;4.394;2023-09-18T02:14:03;14.65;;;9.45;;
23539;SDS011;11947;50.810;4.394;2023-09-18T02:16:30;17.02;;;9.85;;
23539;SDS011;11947;50.810;4.394;2023-09-18T02:18:59;16.17;;;9.80;;
23539;SDS011;11947;50.810;4.394;2023-09-18T02:21:25;15.82;;;9.40;;
23539;SDS011;11947;50.810;4.394;2023-09-18T02:23:51;17.08;;;9.65;;
23539;SDS011;11947;50.810;4.394;2023-09-18T02:26:22;16.20;;;8.90;;
23539;SDS011;11947;50.810;4.394;2023-09-18T02:28:48;19.45;;;9.70;;
23539;SDS011;11947;50.810;4.394;2023-09-18T02:31:14;15.68;;;9.80;;
23539;SDS011;11947;50.810;4.394;2023-09-18T02:33:40;14.82;;;8.90;;
23539;SDS011;11947;50.810;4.394;2023-09-18T02:36:06;12.82;;;8.77;;
23539;SDS011;11947;50.810;4.394;2023-09-18T02:38:32;15.07;;;7.60;;
23539;SDS011;11947;50.810;4.394;2023-09-18T02:40:58;12.73;;;7.22;;
23539;SDS011;11947;50.810;4.394;2023-09-18T02:43:25;12.15;;;6.10;;
23539;SDS011;11947;50.810;4.394;2023-09-18T02:45:51;10.98;;;6.78;;
23539;SDS011;11947;50.810;4.394;2023-09-18T02:48:17;11.63;;;6.20;;
23539;SDS011;11947;50.810;4.394;2023-09-18T02:50:43;11.18;;;5.40;;
23539;SDS011;11947;50.810;4.394;2023-09-18T02:53:19;10.10;;;5.90;;
23539;SDS011;11947;50.810;4.394;2023-09-18T02:55:47;8.63;;;4.97;;
23539;SDS011;11947;50.810;4.394;2023-09-18T02:58:17;8.88;;;4.63;;
23539;SDS011;11947;50.810;4.394;2023-09-18T03:00:46;6.55;;;3.78;;
23539;SDS011;11947;50.810;4.394;2023-09-18T03:03:13;7.70;;;3.90;;
23539;SDS011;11947;50.810;4.394;2023-09-18T03:05:39;6.50;;;4.10;;
23539;SDS011;11947;50.810;4.394;2023-09-18T03:08:06;6.25;;;3.88;;
23539;SDS011;11947;50.810;4.394;2023-09-18T03:10:33;7.90;;;3.40;;
23539;SDS011;11947;50.810;4.394;2023-09-18T03:13:05;5.57;;;3.38;;
23539;SDS011;11947;50.810;4.394;2023-09-18T03:15:31;9.57;;;3.83;;
23539;SDS011;11947;50.810;4.394;2023-09-18T03:17:57;7.22;;;3.90;;
23539;SDS011;11947;50.810;4.394;2023-09-18T03:20:25;6.45;;;3.85;;
23539;SDS011;11947;50.810;4.394;2023-09-18T03:22:52;7.60;;;4.20;;
23539;SDS011;11947;50.810;4.394;2023-09-18T03:25:22;7.97;;;3.72;;
23539;SDS011;11947;50.810;4.394;2023-09-18T03:27:49;8.70;;;4.05;;
23539;SDS011;11947;50.810;4.394;2023-09-18T03:30:16;7.25;;;4.03;;
23539;SDS011;11947;50.810;4.394;2023-09-18T03:32:42;9.65;;;4.05;;
23539;SDS011;11947;50.810;4.394;2023-09-18T03:35:08;8.00;;;4.13;;
23539;SDS011;11947;50.810;4.394;2023-09-18T03:37:42;9.57;;;4.53;;
23539;SDS011;11947;50.810;4.394;2023-09-18T03:40:19;10.75;;;5.80;;
23539;SDS011;11947;50.810;4.394;2023-09-18T03:42:45;11.65;;;5.28;;
23539;SDS011;11947;50.810;4.394;2023-09-18T03:45:11;12.95;;;5.32;;
23539;SDS011;11947;50.810;4.394;2023-09-18T03:47:41;9.07;;;4.90;;
23539;SDS011;11947;50.810;4.394;2023-09-18T03:50:10;10.38;;;4.70;;
23539;SDS011;11947;50.810;4.394;2023-09-18T03:52:37;8.95;;;4.63;;
23539;SDS011;11947;50.810;4.394;2023-09-18T03:55:03;6.60;;;4.13;;
23539;SDS011;11947;50.810;4.394;2023-09-18T03:57:30;7.95;;;4.53;;
23539;SDS011;11947;50.810;4.394;2023-09-18T03:59:55;9.55;;;4.30;;
23539;SDS011;11947;50.810;4.394;2023-09-18T04:02:21;10.75;;;4.45;;
23539;SDS011;11947;50.810;4.394;2023-09-18T04:04:48;6.22;;;3.70;;
23539;SDS011;11947;50.810;4.394;2023-09-18T04:07:15;7.10;;;4.07;;
23539;SDS011;11947;50.810;4.394;2023-09-18T04:09:44;9.52;;;4.22;;
23539;SDS011;11947;50.810;4.394;2023-09-18T04:12:10;7.97;;;4.00;;
23539;SDS011;11947;50.810;4.394;2023-09-18T04:14:36;7.97;;;3.72;;
23539;SDS011;11947;50.810;4.394;2023-09-18T04:17:01;8.18;;;3.80;;
23539;SDS011;11947;50.810;4.394;2023-09-18T04:19:27;11.23;;;4.38;;
23539;SDS011;11947;50.810;4.394;2023-09-18T04:21:53;6.63;;;3.47;;
23539;SDS011;11947;50.810;4.394;2023-09-18T04:24:20;10.55;;;3.67;;
23539;SDS011;11947;50.810;4.394;2023-09-18T04:26:46;8.18;;;3.50;;
23539;SDS011;11947;50.810;4.394;2023-09-18T04:29:12;8.13;;;3.45;;
23539;SDS011;11947;50.810;4.394;2023-09-18T04:31:37;7.50;;;3.17;;
23539;SDS011;11947;50.810;4.394;2023-09-18T04:34:03;7.45;;;2.75;;
23539;SDS011;11947;50.810;4.394;2023-09-18T04:36:29;7.65;;;2.83;;
23539;SDS011;11947;50.810;4.394;2023-09-18T04:38:55;8.75;;;3.05;;
23539;SDS011;11947;50.810;4.394;2023-09-18T04:41:20;5.25;;;2.78;;
23539;SDS011;11947;50.810;4.394;2023-09-18T04:43:46;6.93;;;2.80;;
23539;SDS011;11947;50.810;4.394;2023-09-18T04:46:12;7.35;;;2.55;;
23539;SDS011;11947;50.810;4.394;2023-09-18T04:48:38;6.22;;;2.83;;
23539;SDS011;11947;50.810;4.394;2023-09-18T04:51:04;5.28;;;2.17;;
23539;SDS011;11947;50.810;4.394;2023-09-18T04:53:30;3.10;;;2.28;;
23539;SDS011;11947;50.810;4.394;2023-09-18T04:55:56;7.38;;;2.40;;
23539;SDS011;11947;50.810;4.394;2023-09-18T04:58:22;3.90;;;2.10;;
23539;SDS011;11947;50.810;4.394;2023-09-18T05:00:54;8.85;;;2.95;;
23539;SDS011;11947;50.810;4.394;2023-09-18T05:03:24;5.45;;;2.78;;
23539;SDS011;11947;50.810;4.394;2023-09-18T05:05:50;4.72;;;2.08;;
23539;SDS011;11947;50.810;4.394;2023-09-18T05:08:16;4.75;;;2.20;;
23539;SDS011;11947;50.810;4.394;2023-09-18T05:10:41;6.07;;;2.50;;
23539;SDS011;11947;50.810;4.394;2023-09-18T05:13:08;4.45;;;2.45;;
23539;SDS011;11947;50.810;4.394;2023-09-18T05:15:34;5.63;;;2.40;;
23539;SDS011;11947;50.810;4.394;2023-09-18T05:18:00;4.72;;;2.47;;
23539;SDS011;11947;50.810;4.394;2023-09-18T05:20:27;4.80;;;2.45;;
23539;SDS011;11947;50.810;4.394;2023-09-18T05:22:53;5.97;;;2.15;;
23539;SDS011;11947;50.810;4.394;2023-09-18T05:25:21;6.03;;;2.17;;
23539;SDS011;11947;50.810;4.394;2023-09-18T05:27:48;4.57;;;2.13;;
23539;SDS011;11947;50.810;4.394;2023-09-18T05:30:21;5.38;;;2.20;;
23539;SDS011;11947;50.810;4.394;2023-09-18T05:32:59;4.78;;;2.50;;
23539;SDS011;11947;50.810;4.394;2023-09-18T05:35:30;9.25;;;2.13;;
23539;SDS011;11947;50.810;4.394;2023-09-18T05:38:05;6.28;;;2.53;;
23539;SDS011;11947;50.810;4.394;2023-09-18T05:40:31;6.95;;;2.47;;
23539;SDS011;11947;50.810;4.394;2023-09-18T05:42:57;5.35;;;2.40;;
23539;SDS011;11947;50.810;4.394;2023-09-18T05:45:23;6.72;;;2.35;;
23539;SDS011;11947;50.810;4.394;2023-09-18T05:47:49;4.95;;;2.15;;
23539;SDS011;11947;50.810;4.394;2023-09-18T05:50:15;7.95;;;2.72;;
23539;SDS011;11947;50.810;4.394;2023-09-18T05:52:47;8.43;;;2.78;;
23539;SDS011;11947;50.810;4.394;2023-09-18T05:55:17;6.35;;;2.22;;
23539;SDS011;11947;50.810;4.394;2023-09-18T05:57:43;8.10;;;2.58;;
23539;SDS011;11947;50.810;4.394;2023-09-18T06:00:08;7.13;;;2.38;;
23539;SDS011;11947;50.810;4.394;2023-09-18T06:02:38;8.13;;;2.65;;
23539;SDS011;11947;50.810;4.394;2023-09-18T06:05:05;7.18;;;2.80;;
23539;SDS011;11947;50.810;4.394;2023-09-18T06:07:31;5.05;;;2.65;;
23539;SDS011;11947;50.810;4.394;2023-09-18T06:09:57;4.00;;;2.33;;
23539;SDS011;11947;50.810;4.394;2023-09-18T06:12:23;6.80;;;2.55;;
23539;SDS011;11947;50.810;4.394;2023-09-18T06:14:50;9.13;;;2.92;;
23539;SDS011;11947;50.810;4.394;2023-09-18T06:17:15;6.70;;;2.55;;
23539;SDS011;11947;50.810;4.394;2023-09-18T06:19:42;8.10;;;3.17;;
23539;SDS011;11947;50.810;4.394;2023-09-18T06:22:08;12.00;;;2.80;;
23539;SDS011;11947;50.810;4.394;2023-09-18T06:24:34;8.55;;;2.60;;
23539;SDS011;11947;50.810;4.394;2023-09-18T06:27:01;6.45;;;3.13;;
23539;SDS011;11947;50.810;4.394;2023-09-18T06:29:29;5.53;;;3.03;;
23539;SDS011;11947;50.810;4.394;2023-09-18T06:31:55;5.57;;;2.97;;
23539;SDS011;11947;50.810;4.394;2023-09-18T06:34:21;8.88;;;2.65;;
23539;SDS011;11947;50.810;4.394;2023-09-18T06:36:46;7.60;;;3.00;;
23539;SDS011;11947;50.810;4.394;2023-09-18T06:39:12;6.30;;;2.78;;
23539;SDS011;11947;50.810;4.394;2023-09-18T06:41:37;5.07;;;2.60;;
23539;SDS011;11947;50.810;4.394;2023-09-18T06:44:03;6.70;;;2.72;;
23539;SDS011;11947;50.810;4.394;2023-09-18T06:46:29;4.78;;;2.47;;
23539;SDS011;11947;50.810;4.394;2023-09-18T06:48:55;7.20;;;3.20;;
23539;SDS011;11947;50.810;4.394;2023-09-18T06:51:21;7.78;;;3.10;;
23539;SDS011;11947;50.810;4.394;2023-09-18T06:53:48;8.52;;;3.03;;
23539;SDS011;11947;50.810;4.394;2023-09-18T06:56:13;8.77;;;3.65;;
23539;SDS011;11947;50.810;4.394;2023-09-18T06:58:39;9.02;;;3.50;;
23539;SDS011;11947;50.810;4.394;2023-09-18T07:01:05;10.63;;;3.88;;
23539;SDS011;11947;50.810;4.394;2023-09-18T07:03:34;7.28;;;3.38;;
23539;SDS011;11947;50.810;4.394;2023-09-18T07:06:01;6.32;;;3.85;;
23539;SDS011;11947;50.810;4.394;2023-09-18T07:08:29;6.07;;;3.38;;
23539;SDS011;11947;50.810;4.394;2023-09-18T07:10:55;8.07;;;3.30;;
23539;SDS011;11947;50.810;4.394;2023-09-18T07:13:20;8.70;;;3.88;;
23539;SDS011;11947;50.810;4.394;2023-09-18T07:15:46;8.07;;;3.70;;
23539;SDS011;11947;50.810;4.394;2023-09-18T07:18:13;8.43;;;3.58;;
23539;SDS011;11947;50.810;4.394;2023-09-18T07:20:45;9.55;;;3.45;;
23539;SDS011;11947;50.810;4.394;2023-09-18T07:23:11;9.75;;;4.07;;
23539;SDS011;11947;50.810;4.394;2023-09-18T07:25:37;8.00;;;3.47;;
23539;SDS011;11947;50.810;4.394;2023-09-18T07:28:04;8.18;;;3.60;;
23539;SDS011;11947;50.810;4.394;2023-09-18T07:30:33;7.53;;;3.40;;
23539;SDS011;11947;50.810;4.394;2023-09-18T07:33:01;6.93;;;3.17;;
23539;SDS011;11947;50.810;4.394;2023-09-18T07:35:26;7.07;;;2.95;;
23539;SDS011;11947;50.810;4.394;2023-09-18T07:37:52;7.13;;;3.70;;
23539;SDS011;11947;50.810;4.394;2023-09-18T07:40:18;4.22;;;3.03;;
23539;SDS011;11947;50.810;4.394;2023-09-18T07:42:44;7.13;;;2.92;;
23539;SDS011;11947;50.810;4.394;2023-09-18T07:45:10;5.85;;;2.78;;
23539;SDS011;11947;50.810;4.394;2023-09-18T07:47:36;7.18;;;3.10;;
23539;SDS011;11947;50.810;4.394;2023-09-18T07:50:02;10.98;;;3.15;;
23539;SDS011;11947;50.810;4.394;2023-09-18T07:52:28;6.93;;;3.38;;
23539;SDS011;11947;50.810;4.394;2023-09-18T07:54:55;6.35;;;3.00;;
23539;SDS011;11947;50.810;4.394;2023-09-18T07:57:23;6.05;;;2.80;;
23539;SDS011;11947;50.810;4.394;2023-09-18T07:59:49;8.10;;;3.30;;
23539;SDS011;11947;50.810;4.394;2023-09-18T08:02:15;6.22;;;3.53;;
23539;SDS011;11947;50.810;4.394;2023-09-18T08:04:42;5.43;;;2.90;;
23539;SDS011;11947;50.810;4.394;2023-09-18T08:07:08;7.32;;;2.78;;
23539;SDS011;11947;50.810;4.394;2023-09-18T08:09:33;7.15;;;3.08;;
23539;SDS011;11947;50.810;4.394;2023-09-18T08:12:05;6.55;;;3.63;;
23539;SDS011;11947;50.810;4.394;2023-09-18T08:14:32;7.75;;;3.45;;
23539;SDS011;11947;50.810;4.394;2023-09-18T08:17:00;5.82;;;2.72;;
23539;SDS011;11947;50.810;4.394;2023-09-18T08:19:26;11.15;;;3.45;;
23539;SDS011;11947;50.810;4.394;2023-09-18T08:21:55;7.10;;;3.33;;
23539;SDS011;11947;50.810;4.394;2023-09-18T08:24:23;5.10;;;3.38;;
23539;SDS011;11947;50.810;4.394;2023-09-18T08:26:49;6.43;;;3.10;;
23539;SDS011;11947;50.810;4.394;2023-09-18T08:29:15;7.05;;;3.20;;
23539;SDS011;11947;50.810;4.394;2023-09-18T08:31:40;10.27;;;4.18;;
23539;SDS011;11947;50.810;4.394;2023-09-18T08:34:06;12.43;;;3.75;;
23539;SDS011;11947;50.810;4.394;2023-09-18T08:36:32;5.13;;;3.20;;
23539;SDS011;11947;50.810;4.394;2023-09-18T08:38:58;9.32;;;3.60;;
23539;SDS011;11947;50.810;4.394;2023-09-18T08:41:24;6.75;;;3.80;;
23539;SDS011;11947;50.810;4.394;2023-09-18T08:43:54;6.22;;;3.40;;
23539;SDS011;11947;50.810;4.394;2023-09-18T08:46:25;8.50;;;3.97;;
23539;SDS011;11947;50.810;4.394;2023-09-18T08:48:51;10.27;;;3.55;;
23539;SDS011;11947;50.810;4.394;2023-09-18T08:51:18;9.70;;;3.90;;
23539;SDS011;11947;50.810;4.394;2023-09-18T08:53:44;11.32;;;4.15;;
23539;SDS011;11947;50.810;4.394;2023-09-18T08:56:11;11.50;;;4.40;;
23539;SDS011;11947;50.810;4.394;2023-09-18T08:58:39;7.25;;;4.20;;
23539;SDS011;11947;50.810;4.394;2023-09-18T09:01:10;6.20;;;4.07;;
23539;SDS011;11947;50.810;4.394;2023-09-18T09:03:37;6.55;;;3.88;;
23539;SDS011;11947;50.810;4.394;2023-09-18T09:06:07;10.07;;;4.50;;
23539;SDS011;11947;50.810;4.394;2023-09-18T09:08:34;6.40;;;4.40;;
23539;SDS011;11947;50.810;4.394;2023-09-18T09:11:01;11.90;;;4.50;;
23539;SDS011;11947;50.810;4.394;2023-09-18T09:13:27;12.57;;;4.93;;
23539;SDS011;11947;50.810;4.394;2023-09-18T09:15:54;12.57;;;4.75;;
23539;SDS011;11947;50.810;4.394;2023-09-18T09:18:22;8.40;;;5.10;;
23539;SDS011;11947;50.810;4.394;2023-09-18T09:20:55;12.00;;;4.85;;
23539;SDS011;11947;50.810;4.394;2023-09-18T09:23:26;11.63;;;4.85;;
23539;SDS011;11947;50.810;4.394;2023-09-18T09:25:52;10.95;;;5.15;;
23539;SDS011;11947;50.810;4.394;2023-09-18T09:28:31;11.93;;;5.57;;
23539;SDS011;11947;50.810;4.394;2023-09-18T09:31:00;12.18;;;5.60;;
23539;SDS011;11947;50.810;4.394;2023-09-18T09:33:29;8.23;;;5.70;;
23539;SDS011;11947;50.810;4.394;2023-09-18T09:35:55;12.15;;;5.40;;
23539;SDS011;11947;50.810;4.394;2023-09-18T09:38:27;9.30;;;4.70;;
23539;SDS011;11947;50.810;4.394;2023-09-18T09:40:56;10.73;;;5.03;;
23539;SDS011;11947;50.810;4.394;2023-09-18T09:43:24;11.27;;;5.05;;
23539;SDS011;11947;50.810;4.394;2023-09-18T09:45:56;10.35;;;5.15;;
23539;SDS011;11947;50.810;4.394;2023-09-18T09:48:31;8.75;;;4.88;;
23539;SDS011;11947;50.810;4.394;2023-09-18T09:50:58;9.55;;;4.90;;
23539;SDS011;11947;50.810;4.394;2023-09-18T09:53:44;15.77;;;4.93;;
23539;SDS011;11947;50.810;4.394;2023-09-18T09:56:12;12.38;;;4.95;;
23539;SDS011;11947;50.810;4.394;2023-09-18T09:58:38;8.68;;;4.70;;
23539;SDS011;11947;50.810;4.394;2023-09-18T10:01:09;10.68;;;4.63;;
23539;SDS011;11947;50.810;4.394;2023-09-18T10:03:42;9.27;;;5.13;;
23539;SDS011;11947;50.810;4.394;2023-09-18T10:06:09;12.30;;;4.53;;
23539;SDS011;11947;50.810;4.394;2023-09-18T10:08:38;11.13;;;4.50;;
23539;SDS011;11947;50.810;4.394;2023-09-18T10:11:08;9.48;;;4.28;;
23539;SDS011;11947;50.810;4.394;2023-09-18T10:13:42;10.23;;;4.32;;
23539;SDS011;11947;50.810;4.394;2023-09-18T10:16:12;10.35;;;4.20;;
23539;SDS011;11947;50.810;4.394;2023-09-18T10:21:47;11.93;;;4.43;;
23539;SDS011;11947;50.810;4.394;2023-09-18T10:24:25;7.18;;;4.35;;
23539;SDS011;11947;50.810;4.394;2023-09-18T10:27:01;10.52;;;4.88;;
23539;SDS011;11947;50.810;4.394;2023-09-18T10:29:29;8.82;;;4.88;;
23539;SDS011;11947;50.810;4.394;2023-09-18T10:31:57;7.38;;;4.28;;
23539;SDS011;11947;50.810;4.394;2023-09-18T10:34:24;7.72;;;5.30;;
23539;SDS011;11947;50.810;4.394;2023-09-18T10:36:51;12.05;;;4.72;;
23539;SDS011;11947;50.810;4.394;2023-09-18T10:39:18;9.60;;;4.78;;
23539;SDS011;11947;50.810;4.394;2023-09-18T10:41:49;8.20;;;4.80;;
23539;SDS011;11947;50.810;4.394;2023-09-18T10:44:18;10.93;;;4.80;;
23539;SDS011;11947;50.810;4.394;2023-09-18T10:46:45;9.20;;;4.47;;
23539;SDS011;11947;50.810;4.394;2023-09-18T10:49:11;9.52;;;4.70;;
23539;SDS011;11947;50.810;4.394;2023-09-18T10:51:38;8.52;;;4.95;;
23539;SDS011;11947;50.810;4.394;2023-09-18T10:54:10;13.93;;;5.93;;
23539;SDS011;11947;50.810;4.394;2023-09-18T10:56:36;10.55;;;4.35;;
23539;SDS011;11947;50.810;4.394;2023-09-18T10:59:05;8.68;;;4.60;;
23539;SDS011;11947;50.810;4.394;2023-09-18T11:01:32;9.35;;;3.75;;
23539;SDS011;11947;50.810;4.394;2023-09-18T11:04:01;6.85;;;3.50;;
23539;SDS011;11947;50.810;4.394;2023-09-18T11:06:29;6.07;;;3.20;;
23539;SDS011;11947;50.810;4.394;2023-09-18T11:09:07;9.77;;;3.47;;
23539;SDS011;11947;50.810;4.394;2023-09-18T11:11:34;6.93;;;3.38;;
23539;SDS011;11947;50.810;4.394;2023-09-18T11:14:00;6.88;;;4.00;;
23539;SDS011;11947;50.810;4.394;2023-09-18T11:18:52;5.75;;;3.20;;
23539;SDS011;11947;50.810;4.394;2023-09-18T11:21:31;5.47;;;3.08;;
23539;SDS011;11947;50.810;4.394;2023-09-18T11:24:07;4.05;;;2.88;;
23539;SDS011;11947;50.810;4.394;2023-09-18T11:26:53;6.30;;;2.92;;
23539;SDS011;11947;50.810;4.394;2023-09-18T11:29:22;5.53;;;3.20;;
23539;SDS011;11947;50.810;4.394;2023-09-18T11:31:49;7.68;;;2.92;;
23539;SDS011;11947;50.810;4.394;2023-09-18T11:34:23;5.93;;;3.42;;
23539;SDS011;11947;50.810;4.394;2023-09-18T11:37:00;8.50;;;3.22;;
23539;SDS011;11947;50.810;4.394;2023-09-18T11:39:38;7.68;;;2.92;;
23539;SDS011;11947;50.810;4.394;2023-09-18T11:42:18;5.80;;;3.17;;
23539;SDS011;11947;50.810;4.394;2023-09-18T11:44:47;6.32;;;3.20;;
23539;SDS011;11947;50.810;4.394;2023-09-18T11:47:18;4.70;;;3.03;;
23539;SDS011;11947;50.810;4.394;2023-09-18T11:52:26;5.38;;;2.80;;
23539;SDS011;11947;50.810;4.394;2023-09-18T11:54:56;4.70;;;2.58;;
23539;SDS011;11947;50.810;4.394;2023-09-18T11:57:24;4.80;;;3.03;;
23539;SDS011;11947;50.810;4.394;2023-09-18T11:59:50;3.25;;;2.72;;
23539;SDS011;11947;50.810;4.394;2023-09-18T12:02:27;7.68;;;2.78;;
23539;SDS011;11947;50.810;4.394;2023-09-18T12:05:02;5.63;;;2.97;;
23539;SDS011;11947;50.810;4.394;2023-09-18T12:07:31;4.60;;;3.00;;
23539;SDS011;11947;50.810;4.394;2023-09-18T12:09:57;5.15;;;2.75;;
23539;SDS011;11947;50.810;4.394;2023-09-18T12:12:22;6.78;;;3.22;;
23539;SDS011;11947;50.810;4.394;2023-09-18T12:14:51;4.10;;;2.65;;
23539;SDS011;11947;50.810;4.394;2023-09-18T12:17:17;4.35;;;2.92;;
23539;SDS011;11947;50.810;4.394;2023-09-18T12:19:50;7.45;;;2.80;;
23539;SDS011;11947;50.810;4.394;2023-09-18T12:22:22;9.38;;;3.00;;
23539;SDS011;11947;50.810;4.394;2023-09-18T12:25:14;7.10;;;2.83;;
23539;SDS011;11947;50.810;4.394;2023-09-18T12:27:41;3.58;;;2.83;;
23539;SDS011;11947;50.810;4.394;2023-09-18T12:30:07;6.07;;;2.97;;
23539;SDS011;11947;50.810;4.394;2023-09-18T12:32:37;5.07;;;2.97;;
23539;SDS011;11947;50.810;4.394;2023-09-18T12:35:04;4.32;;;3.00;;
23539;SDS011;11947;50.810;4.394;2023-09-18T12:37:35;6.88;;;3.00;;
23539;SDS011;11947;50.810;4.394;2023-09-18T12:40:10;4.32;;;2.83;;
23539;SDS011;11947;50.810;4.394;2023-09-18T12:42:49;5.25;;;2.92;;
23539;SDS011;11947;50.810;4.394;2023-09-18T12:45:15;6.65;;;3.47;;
23539;SDS011;11947;50.810;4.394;2023-09-18T12:47:42;9.77;;;2.53;;
23539;SDS011;11947;50.810;4.394;2023-09-18T12:50:09;7.43;;;2.85;;
23539;SDS011;11947;50.810;4.394;2023-09-18T12:52:37;7.45;;;2.53;;
23539;SDS011;11947;50.810;4.394;2023-09-18T12:55:03;5.65;;;2.90;;
23539;SDS011;11947;50.810;4.394;2023-09-18T12:57:31;5.57;;;2.50;;
23539;SDS011;11947;50.810;4.394;2023-09-18T12:59:58;4.50;;;2.60;;
23539;SDS011;11947;50.810;4.394;2023-09-18T13:02:23;8.30;;;2.50;;
23539;SDS011;11947;50.810;4.394;2023-09-18T13:04:55;7.03;;;2.90;;
23539;SDS011;11947;50.810;4.394;2023-09-18T13:07:22;7.50;;;2.75;;
23539;SDS011;11947;50.810;4.394;2023-09-18T13:09:58;4.38;;;2.63;;
23539;SDS011;11947;50.810;4.394;2023-09-18T13:12:41;8.65;;;2.60;;
23539;SDS011;11947;50.810;4.394;2023-09-18T13:15:12;4.57;;;2.85;;
23539;SDS011;11947;50.810;4.394;2023-09-18T13:17:42;4.57;;;2.60;;
23539;SDS011;11947;50.810;4.394;2023-09-18T13:20:14;7.68;;;2.72;;
23539;SDS011;11947;50.810;4.394;2023-09-18T13:22:41;6.40;;;2.65;;
23539;SDS011;11947;50.810;4.394;2023-09-18T13:25:10;6.35;;;2.70;;
23539;SDS011;11947;50.810;4.394;2023-09-18T13:27:36;5.13;;;2.53;;
23539;SDS011;11947;50.810;4.394;2023-09-18T13:30:04;4.85;;;2.88;;
23539;SDS011;11947;50.810;4.394;2023-09-18T13:32:35;4.80;;;2.78;;
23539;SDS011;11947;50.810;4.394;2023-09-18T13:35:04;4.47;;;2.67;;
23539;SDS011;11947;50.810;4.394;2023-09-18T13:37:33;4.40;;;2.58;;
23539;SDS011;11947;50.810;4.394;2023-09-18T13:39:59;4.78;;;2.67;;
23539;SDS011;11947;50.810;4.394;2023-09-18T13:42:27;6.82;;;2.58;;
23539;SDS011;11947;50.810;4.394;2023-09-18T13:44:55;5.00;;;2.58;;
23539;SDS011;11947;50.810;4.394;2023-09-18T13:47:21;5.72;;;2.70;;
23539;SDS011;11947;50.810;4.394;2023-09-18T13:49:47;6.95;;;2.60;;
23539;SDS011;11947;50.810;4.394;2023-09-18T13:52:12;3.35;;;2.58;;
23539;SDS011;11947;50.810;4.394;2023-09-18T13:54:38;5.28;;;2.70;;
23539;SDS011;11947;50.810;4.394;2023-09-18T13:57:05;6.30;;;2.22;;
23539;SDS011;11947;50.810;4.394;2023-09-18T13:59:31;8.35;;;2.35;;
23539;SDS011;11947;50.810;4.394;2023-09-18T14:01:56;6.40;;;2.20;;
23539;SDS011;11947;50.810;4.394;2023-09-18T14:04:22;8.05;;;2.20;;
23539;SDS011;11947;50.810;4.394;2023-09-18T14:06:48;7.43;;;2.20;;
23539;SDS011;11947;50.810;4.394;2023-09-18T14:09:13;4.55;;;2.50;;
23539;SDS011;11947;50.810;4.394;2023-09-18T14:11:39;5.70;;;2.53;;
23539;SDS011;11947;50.810;4.394;2023-09-18T14:14:05;7.55;;;2.30;;
23539;SDS011;11947;50.810;4.394;2023-09-18T14:16:30;6.45;;;2.30;;
23539;SDS011;11947;50.810;4.394;2023-09-18T14:18:59;5.80;;;2.50;;
23539;SDS011;11947;50.810;4.394;2023-09-18T14:21:24;4.85;;;2.45;;
23539;SDS011;11947;50.810;4.394;2023-09-18T14:23:55;8.40;;;2.83;;
23539;SDS011;11947;50.810;4.394;2023-09-18T14:26:21;5.25;;;2.55;;
23539;SDS011;11947;50.810;4.394;2023-09-18T14:28:46;7.90;;;2.95;;
23539;SDS011;11947;50.810;4.394;2023-09-18T14:31:12;7.57;;;2.65;;
23539;SDS011;11947;50.810;4.394;2023-09-18T14:33:37;5.35;;;2.72;;
23539;SDS011;11947;50.810;4.394;2023-09-18T14:36:03;7.10;;;2.83;;
23539;SDS011;11947;50.810;4.394;2023-09-18T14:38:29;6.28;;;2.83;;
23539;SDS011;11947;50.810;4.394;2023-09-18T14:40:54;7.28;;;2.88;;
23539;SDS011;11947;50.810;4.394;2023-09-18T14:43:26;11.13;;;3.13;;
23539;SDS011;11947;50.810;4.394;2023-09-18T14:45:52;8.23;;;2.95;;
23539;SDS011;11947;50.810;4.394;2023-09-18T14:48:20;8.65;;;3.35;;
23539;SDS011;11947;50.810;4.394;2023-09-18T14:50:52;8.00;;;3.15;;
23539;SDS011;11947;50.810;4.394;2023-09-18T14:55:44;8.73;;;3.33;;
23539;SDS011;11947;50.810;4.394;2023-09-18T14:58:10;10.50;;;3.10;;